sensor_id;sensor_type;location;lat;lon;timestamp;pressure;altitude;pressure_sealevel;temperature;humidity
15694;BME280;7947;48.834;9.132;2024-02-21T00:02:15;99199.59;;;7.97;81.38
15694;BME280;7947;48.834;9.132;2024-02-21T00:05:18;99195.19;;;7.91;81.46
15694;BME280;7947;48.834;9.132;2024-02-21T00:08:21;99201.56;;;7.90;81.42
15694;BME280;7947;48.834;9.132;2024-02-21T00:11:26;99197.63;;;7.93;81.29
15694;BME280;7947;48.834;9.132;2024-02-21T00:14:29;99200.97;;;7.88;81.37
15694;BME280;7947;48.834;9.132;2024-02-21T00:17:32;99199.94;;;7.89;81.70
15694;BME280;7947;48.834;9.132;2024-02-21T00:20:35;99193.19;;;7.87;81.32
15694;BME280;7947;48.834;9.132;2024-02-21T00:23:38;99186.44;;;7.84;81.70
15694;BME280;7947;48.834;9.132;2024-02-21T00:26:42;99179.16;;;7.80;81.88
15694;BME280;7947;48.834;9.132;2024-02-21T00:29:45;99168.56;;;7.85;81.85
15694;BME280;7947;48.834;9.132;2024-02-21T00:32:47;99160.91;;;8.00;82.19
15694;BME280;7947;48.834;9.132;2024-02-21T00:35:50;99160.09;;;7.99;82.12
15694;BME280;7947;48.834;9.132;2024-02-21T00:38:53;99157.31;;;8.06;82.33
15694;BME280;7947;48.834;9.132;2024-02-21T00:41:58;99148.72;;;8.04;82.16
15694;BME280;7947;48.834;9.132;2024-02-21T00:45:00;99146.97;;;7.98;82.29
15694;BME280;7947;48.834;9.132;2024-02-21T00:48:04;99145.38;;;7.97;82.04
15694;BME280;7947;48.834;9.132;2024-02-21T00:51:07;99149.66;;;7.98;81.93
15694;BME280;7947;48.834;9.132;2024-02-21T00:54:10;99141.78;;;8.03;81.47
15694;BME280;7947;48.834;9.132;2024-02-21T00:57:14;99141.97;;;8.13;81.88
15694;BME280;7947;48.834;9.132;2024-02-21T01:00:18;99137.19;;;8.15;81.98
15694;BME280;7947;48.834;9.132;2024-02-21T01:03:21;99135.50;;;8.09;81.69
15694;BME280;7947;48.834;9.132;2024-02-21T01:06:24;99127.50;;;7.97;81.81
15694;BME280;7947;48.834;9.132;2024-02-21T01:09:27;99118.31;;;7.93;81.92
15694;BME280;7947;48.834;9.132;2024-02-21T01:12:31;99114.13;;;7.97;81.98
15694;BME280;7947;48.834;9.132;2024-02-21T01:15:34;99110.50;;;7.92;82.17
15694;BME280;7947;48.834;9.132;2024-02-21T01:18:38;99102.66;;;7.85;82.09
15694;BME280;7947;48.834;9.132;2024-02-21T01:21:42;99096.00;;;7.88;82.43
15694;BME280;7947;48.834;9.132;2024-02-21T01:24:45;99102.38;;;7.98;82.65
15694;BME280;7947;48.834;9.132;2024-02-21T01:27:49;99096.13;;;8.04;81.91
15694;BME280;7947;48.834;9.132;2024-02-21T01:30:53;99091.13;;;8.08;82.19
15694;BME280;7947;48.834;9.132;2024-02-21T01:33:55;99088.94;;;8.05;81.74
15694;BME280;7947;48.834;9.132;2024-02-21T01:36:59;99080.09;;;8.04;81.37
15694;BME280;7947;48.834;9.132;2024-02-21T01:40:07;99074.19;;;7.91;81.00
15694;BME280;7947;48.834;9.132;2024-02-21T01:43:20;99073.72;;;7.82;81.81
15694;BME280;7947;48.834;9.132;2024-02-21T01:46:23;99072.44;;;7.85;82.06
15694;BME280;7947;48.834;9.132;2024-02-21T01:49:30;99066.19;;;7.91;81.94
15694;BME280;7947;48.834;9.132;2024-02-21T01:52:33;99056.88;;;8.05;81.71
15694;BME280;7947;48.834;9.132;2024-02-21T01:55:37;99046.63;;;8.13;80.82
15694;BME280;7947;48.834;9.132;2024-02-21T01:58:46;99050.34;;;8.12;80.72
15694;BME280;7947;48.834;9.132;2024-02-21T02:01:51;99043.25;;;8.18;80.62
15694;BME280;7947;48.834;9.132;2024-02-21T02:04:54;99038.34;;;8.15;80.65
15694;BME280;7947;48.834;9.132;2024-02-21T02:07:58;99035.22;;;8.18;80.03
15694;BME280;7947;48.834;9.132;2024-02-21T02:11:01;99034.41;;;8.17;79.44
15694;BME280;7947;48.834;9.132;2024-02-21T02:14:06;99029.31;;;8.16;79.08
15694;BME280;7947;48.834;9.132;2024-02-21T02:17:08;99033.13;;;8.20;77.92
15694;BME280;7947;48.834;9.132;2024-02-21T02:20:12;99023.47;;;8.19;77.97
15694;BME280;7947;48.834;9.132;2024-02-21T02:23:22;99014.56;;;8.25;78.08
15694;BME280;7947;48.834;9.132;2024-02-21T02:26:26;99015.13;;;8.27;77.75
15694;BME280;7947;48.834;9.132;2024-02-21T02:29:31;99009.91;;;8.32;77.48
15694;BME280;7947;48.834;9.132;2024-02-21T02:32:34;99001.53;;;8.29;77.82
15694;BME280;7947;48.834;9.132;2024-02-21T02:35:37;99000.06;;;8.49;77.82
15694;BME280;7947;48.834;9.132;2024-02-21T02:38:42;99000.47;;;8.58;78.40
15694;BME280;7947;48.834;9.132;2024-02-21T02:41:45;98987.00;;;8.53;79.04
15694;BME280;7947;48.834;9.132;2024-02-21T02:44:48;98985.94;;;8.54;78.63
15694;BME280;7947;48.834;9.132;2024-02-21T02:47:50;98970.59;;;8.61;78.70
15694;BME280;7947;48.834;9.132;2024-02-21T02:50:54;98967.47;;;8.52;77.59
15694;BME280;7947;48.834;9.132;2024-02-21T02:53:58;98974.63;;;8.63;75.51
15694;BME280;7947;48.834;9.132;2024-02-21T02:57:01;98962.88;;;8.64;75.70
15694;BME280;7947;48.834;9.132;2024-02-21T03:00:06;98960.41;;;8.74;74.68
15694;BME280;7947;48.834;9.132;2024-02-21T03:03:09;98956.19;;;8.78;75.02
15694;BME280;7947;48.834;9.132;2024-02-21T03:06:12;98971.09;;;8.74;77.12
15694;BME280;7947;48.834;9.132;2024-02-21T03:09:16;98980.91;;;8.69;77.84
15694;BME280;7947;48.834;9.132;2024-02-21T03:12:19;98981.09;;;8.67;78.77
15694;BME280;7947;48.834;9.132;2024-02-21T03:15:28;98981.22;;;8.72;80.52
15694;BME280;7947;48.834;9.132;2024-02-21T03:18:31;98974.16;;;8.66;80.98
15694;BME280;7947;48.834;9.132;2024-02-21T03:21:34;98962.13;;;8.52;81.13
15694;BME280;7947;48.834;9.132;2024-02-21T03:24:38;98962.19;;;8.41;81.39
15694;BME280;7947;48.834;9.132;2024-02-21T03:27:41;98960.81;;;8.38;81.80
15694;BME280;7947;48.834;9.132;2024-02-21T03:30:44;98946.56;;;8.33;81.65
15694;BME280;7947;48.834;9.132;2024-02-21T03:33:47;98930.09;;;8.24;81.71
15694;BME280;7947;48.834;9.132;2024-02-21T03:36:50;98935.88;;;8.21;81.67
15694;BME280;7947;48.834;9.132;2024-02-21T03:39:54;98941.47;;;8.19;81.69
15694;BME280;7947;48.834;9.132;2024-02-21T03:42:57;98930.13;;;8.12;81.98
15694;BME280;7947;48.834;9.132;2024-02-21T03:46:01;98931.59;;;8.20;82.55
15694;BME280;7947;48.834;9.132;2024-02-21T03:49:04;98937.06;;;8.25;82.72
15694;BME280;7947;48.834;9.132;2024-02-21T03:52:07;98940.16;;;8.34;82.37
15694;BME280;7947;48.834;9.132;2024-02-21T03:55:12;98923.72;;;8.25;82.84
15694;BME280;7947;48.834;9.132;2024-02-21T03:58:15;98912.31;;;8.30;82.48
15694;BME280;7947;48.834;9.132;2024-02-21T04:01:17;98913.84;;;8.26;82.63
15694;BME280;7947;48.834;9.132;2024-02-21T04:04:21;98914.66;;;8.26;82.36
15694;BME280;7947;48.834;9.132;2024-02-21T04:07:24;98925.44;;;8.19;82.35
15694;BME280;7947;48.834;9.132;2024-02-21T04:10:29;98905.66;;;8.04;82.48
15694;BME280;7947;48.834;9.132;2024-02-21T04:13:32;98892.31;;;8.04;83.21
15694;BME280;7947;48.834;9.132;2024-02-21T04:16:35;98892.88;;;8.06;82.42
15694;BME280;7947;48.834;9.132;2024-02-21T04:19:38;98884.72;;;7.84;82.29
15694;BME280;7947;48.834;9.132;2024-02-21T04:22:42;98886.44;;;7.90;82.25
15694;BME280;7947;48.834;9.132;2024-02-21T04:25:46;98878.19;;;7.92;81.55
15694;BME280;7947;48.834;9.132;2024-02-21T04:28:49;98890.44;;;7.76;81.30
15694;BME280;7947;48.834;9.132;2024-02-21T04:31:52;98903.38;;;7.68;80.05
15694;BME280;7947;48.834;9.132;2024-02-21T04:34:55;98893.06;;;7.60;80.30
15694;BME280;7947;48.834;9.132;2024-02-21T04:37:58;98883.31;;;7.54;80.21
15694;BME280;7947;48.834;9.132;2024-02-21T04:41:03;98880.78;;;7.47;81.33
15694;BME280;7947;48.834;9.132;2024-02-21T04:44:06;98885.69;;;7.39;81.86
15694;BME280;7947;48.834;9.132;2024-02-21T04:47:10;98893.34;;;7.35;82.40
15694;BME280;7947;48.834;9.132;2024-02-21T04:50:13;98887.44;;;7.33;82.71
15694;BME280;7947;48.834;9.132;2024-02-21T04:53:17;98887.88;;;7.42;81.78
15694;BME280;7947;48.834;9.132;2024-02-21T04:56:21;98883.97;;;7.32;82.17
15694;BME280;7947;48.834;9.132;2024-02-21T04:59:24;98886.75;;;7.26;81.70
15694;BME280;7947;48.834;9.132;2024-02-21T05:02:27;98894.66;;;7.21;81.54
15694;BME280;7947;48.834;9.132;2024-02-21T05:05:30;98894.56;;;7.16;81.28
15694;BME280;7947;48.834;9.132;2024-02-21T05:08:33;98881.66;;;7.24;81.23
15694;BME280;7947;48.834;9.132;2024-02-21T05:11:37;98888.72;;;7.30;81.22
15694;BME280;7947;48.834;9.132;2024-02-21T05:14:40;98885.25;;;7.18;80.98
15694;BME280;7947;48.834;9.132;2024-02-21T05:17:44;98884.22;;;7.19;80.96
15694;BME280;7947;48.834;9.132;2024-02-21T05:20:47;98872.03;;;7.23;80.75
15694;BME280;7947;48.834;9.132;2024-02-21T05:23:50;98853.94;;;7.25;80.93
15694;BME280;7947;48.834;9.132;2024-02-21T05:26:55;98843.63;;;7.17;80.69
15694;BME280;7947;48.834;9.132;2024-02-21T05:29:58;98852.78;;;7.21;81.16
15694;BME280;7947;48.834;9.132;2024-02-21T05:33:04;98840.16;;;7.17;79.77
15694;BME280;7947;48.834;9.132;2024-02-21T05:36:08;98837.50;;;7.05;80.68
15694;BME280;7947;48.834;9.132;2024-02-21T05:39:11;98827.06;;;7.04;80.73
15694;BME280;7947;48.834;9.132;2024-02-21T05:42:15;98826.50;;;7.02;81.50
15694;BME280;7947;48.834;9.132;2024-02-21T05:45:18;98824.16;;;7.05;81.57
15694;BME280;7947;48.834;9.132;2024-02-21T05:48:21;98820.09;;;7.14;80.87
15694;BME280;7947;48.834;9.132;2024-02-21T05:51:25;98822.91;;;7.08;80.62
15694;BME280;7947;48.834;9.132;2024-02-21T05:54:28;98818.16;;;6.98;78.48
15694;BME280;7947;48.834;9.132;2024-02-21T05:57:32;98822.91;;;7.08;79.60
15694;BME280;7947;48.834;9.132;2024-02-21T06:00:35;98821.63;;;6.99;80.14
15694;BME280;7947;48.834;9.132;2024-02-21T06:03:38;98816.53;;;6.97;80.44
15694;BME280;7947;48.834;9.132;2024-02-21T06:06:41;98820.84;;;6.98;80.40
15694;BME280;7947;48.834;9.132;2024-02-21T06:09:44;98817.94;;;7.00;79.37
15694;BME280;7947;48.834;9.132;2024-02-21T06:12:48;98816.78;;;6.96;79.43
15694;BME280;7947;48.834;9.132;2024-02-21T06:15:51;98814.34;;;6.94;79.82
15694;BME280;7947;48.834;9.132;2024-02-21T06:18:54;98810.75;;;7.00;79.26
15694;BME280;7947;48.834;9.132;2024-02-21T06:21:57;98818.84;;;7.05;78.52
15694;BME280;7947;48.834;9.132;2024-02-21T06:25:00;98813.50;;;7.05;78.27
15694;BME280;7947;48.834;9.132;2024-02-21T06:28:05;98815.16;;;6.95;78.16
15694;BME280;7947;48.834;9.132;2024-02-21T06:31:08;98828.50;;;6.95;77.54
15694;BME280;7947;48.834;9.132;2024-02-21T06:34:11;98832.53;;;6.97;77.47
15694;BME280;7947;48.834;9.132;2024-02-21T06:37:14;98839.94;;;7.07;77.47
15694;BME280;7947;48.834;9.132;2024-02-21T06:40:17;98840.06;;;7.52;77.28
15694;BME280;7947;48.834;9.132;2024-02-21T06:43:22;98826.03;;;8.17;75.31
15694;BME280;7947;48.834;9.132;2024-02-21T06:46:25;98812.34;;;8.80;71.82
15694;BME280;7947;48.834;9.132;2024-02-21T06:49:28;98805.25;;;8.91;70.24
15694;BME280;7947;48.834;9.132;2024-02-21T06:52:31;98806.06;;;8.91;71.00
15694;BME280;7947;48.834;9.132;2024-02-21T06:55:34;98798.13;;;9.66;70.11
15694;BME280;7947;48.834;9.132;2024-02-21T06:58:38;98803.16;;;10.84;64.96
15694;BME280;7947;48.834;9.132;2024-02-21T07:01:45;98798.72;;;11.77;61.07
15694;BME280;7947;48.834;9.132;2024-02-21T07:04:48;98790.16;;;12.10;58.83
15694;BME280;7947;48.834;9.132;2024-02-21T07:07:51;98791.75;;;11.86;59.07
15694;BME280;7947;48.834;9.132;2024-02-21T07:10:54;98785.97;;;11.37;60.11
15694;BME280;7947;48.834;9.132;2024-02-21T07:13:58;98782.16;;;10.76;61.91
15694;BME280;7947;48.834;9.132;2024-02-21T07:17:01;98782.84;;;10.20;63.47
15694;BME280;7947;48.834;9.132;2024-02-21T07:20:06;98780.91;;;9.84;65.66
15694;BME280;7947;48.834;9.132;2024-02-21T07:23:09;98775.81;;;9.56;65.78
15694;BME280;7947;48.834;9.132;2024-02-21T07:26:12;98780.19;;;9.40;66.79
15694;BME280;7947;48.834;9.132;2024-02-21T07:29:16;98775.59;;;9.36;67.70
15694;BME280;7947;48.834;9.132;2024-02-21T07:32:19;98770.19;;;9.31;67.64
15694;BME280;7947;48.834;9.132;2024-02-21T07:35:21;98763.50;;;9.33;67.00
15694;BME280;7947;48.834;9.132;2024-02-21T07:38:24;98776.41;;;9.36;66.85
15694;BME280;7947;48.834;9.132;2024-02-21T07:41:27;98766.28;;;9.43;66.68
15694;BME280;7947;48.834;9.132;2024-02-21T07:44:33;98767.66;;;9.46;66.99
15694;BME280;7947;48.834;9.132;2024-02-21T07:47:36;98764.00;;;9.52;67.05
15694;BME280;7947;48.834;9.132;2024-02-21T07:50:39;98757.41;;;9.64;65.01
15694;BME280;7947;48.834;9.132;2024-02-21T07:53:42;98741.47;;;9.79;63.23
15694;BME280;7947;48.834;9.132;2024-02-21T07:56:47;98742.84;;;9.82;63.31
15694;BME280;7947;48.834;9.132;2024-02-21T07:59:51;98747.16;;;9.83;63.21
15694;BME280;7947;48.834;9.132;2024-02-21T08:02:54;98739.72;;;9.90;63.03
15694;BME280;7947;48.834;9.132;2024-02-21T08:05:57;98742.13;;;9.91;63.36
15694;BME280;7947;48.834;9.132;2024-02-21T08:09:00;98747.53;;;9.96;62.62
15694;BME280;7947;48.834;9.132;2024-02-21T08:12:04;98748.66;;;10.00;63.04
15694;BME280;7947;48.834;9.132;2024-02-21T08:15:09;98748.38;;;10.02;62.80
15694;BME280;7947;48.834;9.132;2024-02-21T08:18:12;98746.13;;;10.16;60.87
15694;BME280;7947;48.834;9.132;2024-02-21T08:21:15;98751.50;;;10.21;60.39
15694;BME280;7947;48.834;9.132;2024-02-21T08:24:18;98750.75;;;10.25;61.15
15694;BME280;7947;48.834;9.132;2024-02-21T08:27:22;98750.22;;;10.28;60.23
15694;BME280;7947;48.834;9.132;2024-02-21T08:30:26;98745.13;;;10.32;60.25
15694;BME280;7947;48.834;9.132;2024-02-21T08:33:29;98737.84;;;10.22;60.80
15694;BME280;7947;48.834;9.132;2024-02-21T08:36:33;98730.22;;;10.09;60.97
15694;BME280;7947;48.834;9.132;2024-02-21T08:39:36;98723.31;;;10.13;62.10
15694;BME280;7947;48.834;9.132;2024-02-21T08:42:39;98716.00;;;10.09;61.47
15694;BME280;7947;48.834;9.132;2024-02-21T08:45:44;98708.34;;;10.17;60.37
15694;BME280;7947;48.834;9.132;2024-02-21T08:48:47;98707.31;;;10.28;60.67
15694;BME280;7947;48.834;9.132;2024-02-21T08:51:50;98707.25;;;10.18;60.95
15694;BME280;7947;48.834;9.132;2024-02-21T08:54:53;98710.28;;;10.32;60.88
15694;BME280;7947;48.834;9.132;2024-02-21T08:57:56;98709.25;;;10.33;60.91
15694;BME280;7947;48.834;9.132;2024-02-21T09:01:00;98705.25;;;10.35;60.15
15694;BME280;7947;48.834;9.132;2024-02-21T09:04:05;98694.00;;;10.43;60.02
15694;BME280;7947;48.834;9.132;2024-02-21T09:07:09;98686.81;;;10.49;60.23
15694;BME280;7947;48.834;9.132;2024-02-21T09:10:12;98690.09;;;10.61;59.25
15694;BME280;7947;48.834;9.132;2024-02-21T09:13:15;98685.25;;;10.63;59.37
15694;BME280;7947;48.834;9.132;2024-02-21T09:16:19;98689.56;;;10.64;60.33
15694;BME280;7947;48.834;9.132;2024-02-21T09:19:22;98688.78;;;10.68;59.37
15694;BME280;7947;48.834;9.132;2024-02-21T09:22:25;98684.03;;;10.85;57.96
15694;BME280;7947;48.834;9.132;2024-02-21T09:25:28;98673.59;;;10.94;57.71
15694;BME280;7947;48.834;9.132;2024-02-21T09:28:33;98664.22;;;11.02;58.59
15694;BME280;7947;48.834;9.132;2024-02-21T09:31:37;98664.22;;;10.97;58.07
15694;BME280;7947;48.834;9.132;2024-02-21T09:34:41;98663.69;;;11.00;58.69
15694;BME280;7947;48.834;9.132;2024-02-21T09:37:44;98661.28;;;11.08;58.12
15694;BME280;7947;48.834;9.132;2024-02-21T09:40:53;98657.81;;;11.23;58.78
15694;BME280;7947;48.834;9.132;2024-02-21T09:44:01;98653.53;;;11.22;58.45
15694;BME280;7947;48.834;9.132;2024-02-21T09:47:09;98644.97;;;11.45;57.63
15694;BME280;7947;48.834;9.132;2024-02-21T09:50:14;98644.47;;;11.63;57.36
15694;BME280;7947;48.834;9.132;2024-02-21T09:53:18;98638.84;;;11.90;55.57
15694;BME280;7947;48.834;9.132;2024-02-21T09:56:22;98636.66;;;12.17;55.73
15694;BME280;7947;48.834;9.132;2024-02-21T09:59:27;98635.25;;;12.34;53.32
15694;BME280;7947;48.834;9.132;2024-02-21T10:02:32;98631.91;;;12.62;53.70
15694;BME280;7947;48.834;9.132;2024-02-21T10:05:35;98625.88;;;12.91;52.01
15694;BME280;7947;48.834;9.132;2024-02-21T10:08:38;98625.53;;;13.12;51.86
15694;BME280;7947;48.834;9.132;2024-02-21T10:11:41;98620.56;;;13.29;51.68
15694;BME280;7947;48.834;9.132;2024-02-21T10:14:44;98613.72;;;13.47;49.18
15694;BME280;7947;48.834;9.132;2024-02-21T10:17:48;98608.13;;;13.67;48.89
15694;BME280;7947;48.834;9.132;2024-02-21T10:21:00;98606.69;;;13.80;48.80
15694;BME280;7947;48.834;9.132;2024-02-21T10:24:04;98590.75;;;13.83;49.18
15694;BME280;7947;48.834;9.132;2024-02-21T10:27:08;98594.28;;;13.79;49.17
15694;BME280;7947;48.834;9.132;2024-02-21T10:30:14;98582.19;;;13.76;49.55
15694;BME280;7947;48.834;9.132;2024-02-21T10:33:19;98582.66;;;13.83;49.96
15694;BME280;7947;48.834;9.132;2024-02-21T10:36:24;98581.84;;;13.83;47.79
15694;BME280;7947;48.834;9.132;2024-02-21T10:39:28;98573.53;;;13.79;47.26
15694;BME280;7947;48.834;9.132;2024-02-21T10:42:35;98571.44;;;13.71;47.90
15694;BME280;7947;48.834;9.132;2024-02-21T10:45:41;98577.72;;;13.62;48.30
15694;BME280;7947;48.834;9.132;2024-02-21T10:48:46;98568.88;;;13.56;49.30
15694;BME280;7947;48.834;9.132;2024-02-21T10:51:54;98564.03;;;13.58;47.43
15694;BME280;7947;48.834;9.132;2024-02-21T10:55:02;98551.81;;;13.66;47.48
15694;BME280;7947;48.834;9.132;2024-02-21T10:58:06;98554.53;;;13.66;46.11
15694;BME280;7947;48.834;9.132;2024-02-21T11:01:09;98545.72;;;13.55;46.78
15694;BME280;7947;48.834;9.132;2024-02-21T11:04:16;98532.75;;;13.57;46.91
15694;BME280;7947;48.834;9.132;2024-02-21T11:07:19;98536.47;;;13.66;46.86
15694;BME280;7947;48.834;9.132;2024-02-21T11:10:23;98526.63;;;13.51;47.77
15694;BME280;7947;48.834;9.132;2024-02-21T11:13:30;98520.75;;;13.73;45.55
15694;BME280;7947;48.834;9.132;2024-02-21T11:16:36;98514.13;;;13.89;45.63
15694;BME280;7947;48.834;9.132;2024-02-21T11:19:41;98507.22;;;14.02;45.49
15694;BME280;7947;48.834;9.132;2024-02-21T11:22:45;98497.44;;;14.11;45.27
15694;BME280;7947;48.834;9.132;2024-02-21T11:25:49;98490.41;;;14.10;44.27
15694;BME280;7947;48.834;9.132;2024-02-21T11:28:59;98479.56;;;14.15;44.96
15694;BME280;7947;48.834;9.132;2024-02-21T11:32:02;98473.06;;;14.16;45.27
15694;BME280;7947;48.834;9.132;2024-02-21T11:35:08;98464.41;;;14.19;44.38
15694;BME280;7947;48.834;9.132;2024-02-21T11:38:12;98465.31;;;14.09;45.10
15694;BME280;7947;48.834;9.132;2024-02-21T11:41:18;98458.91;;;14.05;46.13
15694;BME280;7947;48.834;9.132;2024-02-21T11:44:22;98451.41;;;14.02;46.71
15694;BME280;7947;48.834;9.132;2024-02-21T11:47:25;98451.69;;;14.01;46.61
15694;BME280;7947;48.834;9.132;2024-02-21T11:50:30;98443.66;;;13.96;47.81
15694;BME280;7947;48.834;9.132;2024-02-21T11:53:33;98437.13;;;14.02;46.14
15694;BME280;7947;48.834;9.132;2024-02-21T11:56:44;98432.78;;;13.82;47.64
15694;BME280;7947;48.834;9.132;2024-02-21T11:59:47;98427.25;;;13.69;48.10
15694;BME280;7947;48.834;9.132;2024-02-21T12:02:54;98417.16;;;13.61;49.06
15694;BME280;7947;48.834;9.132;2024-02-21T12:06:06;98409.63;;;13.57;49.28
15694;BME280;7947;48.834;9.132;2024-02-21T12:09:09;98410.66;;;13.62;47.91
15694;BME280;7947;48.834;9.132;2024-02-21T12:12:12;98403.00;;;13.69;47.41
15694;BME280;7947;48.834;9.132;2024-02-21T12:15:15;98400.06;;;13.70;46.76
15694;BME280;7947;48.834;9.132;2024-02-21T12:18:18;98383.22;;;13.78;48.81
15694;BME280;7947;48.834;9.132;2024-02-21T12:21:24;98367.22;;;13.87;48.27
15694;BME280;7947;48.834;9.132;2024-02-21T12:24:29;98368.84;;;13.88;48.20
15694;BME280;7947;48.834;9.132;2024-02-21T12:27:32;98365.03;;;14.07;47.08
15694;BME280;7947;48.834;9.132;2024-02-21T12:30:35;98359.22;;;14.00;46.02
15694;BME280;7947;48.834;9.132;2024-02-21T12:33:41;98340.50;;;14.09;46.65
15694;BME280;7947;48.834;9.132;2024-02-21T12:36:45;98344.72;;;14.15;45.75
15694;BME280;7947;48.834;9.132;2024-02-21T12:39:49;98335.38;;;14.26;44.84
15694;BME280;7947;48.834;9.132;2024-02-21T12:42:52;98325.53;;;14.35;44.13
15694;BME280;7947;48.834;9.132;2024-02-21T12:45:55;98322.03;;;14.34;44.69
15694;BME280;7947;48.834;9.132;2024-02-21T12:48:58;98315.69;;;14.25;45.40
15694;BME280;7947;48.834;9.132;2024-02-21T12:52:03;98305.56;;;14.36;44.97
15694;BME280;7947;48.834;9.132;2024-02-21T12:55:06;98295.88;;;14.35;45.70
15694;BME280;7947;48.834;9.132;2024-02-21T12:58:12;98296.69;;;14.35;44.31
15694;BME280;7947;48.834;9.132;2024-02-21T13:01:16;98285.81;;;14.22;44.17
15694;BME280;7947;48.834;9.132;2024-02-21T13:04:19;98279.94;;;14.01;45.36
15694;BME280;7947;48.834;9.132;2024-02-21T13:07:24;98267.44;;;14.05;46.37
15694;BME280;7947;48.834;9.132;2024-02-21T13:10:27;98274.88;;;14.13;46.64
15694;BME280;7947;48.834;9.132;2024-02-21T13:13:30;98267.72;;;14.22;45.84
15694;BME280;7947;48.834;9.132;2024-02-21T13:16:33;98256.13;;;14.22;43.82
15694;BME280;7947;48.834;9.132;2024-02-21T13:19:41;98249.63;;;14.23;44.49
15694;BME280;7947;48.834;9.132;2024-02-21T13:22:45;98247.22;;;14.21;43.59
15694;BME280;7947;48.834;9.132;2024-02-21T13:25:48;98238.44;;;14.16;43.93
15694;BME280;7947;48.834;9.132;2024-02-21T13:28:52;98226.31;;;14.32;42.55
15694;BME280;7947;48.834;9.132;2024-02-21T13:31:55;98220.25;;;14.21;42.94
15694;BME280;7947;48.834;9.132;2024-02-21T13:34:58;98200.44;;;14.31;43.69
15694;BME280;7947;48.834;9.132;2024-02-21T13:38:04;98191.34;;;14.40;43.95
15694;BME280;7947;48.834;9.132;2024-02-21T13:41:08;98191.06;;;14.42;43.08
15694;BME280;7947;48.834;9.132;2024-02-21T13:44:11;98191.47;;;14.35;43.29
15694;BME280;7947;48.834;9.132;2024-02-21T13:47:14;98185.56;;;14.47;40.96
15694;BME280;7947;48.834;9.132;2024-02-21T13:50:18;98173.66;;;14.34;40.20
15694;BME280;7947;48.834;9.132;2024-02-21T13:53:23;98165.88;;;14.33;40.41
15694;BME280;7947;48.834;9.132;2024-02-21T13:56:25;98162.97;;;14.29;40.64
15694;BME280;7947;48.834;9.132;2024-02-21T13:59:28;98172.72;;;14.25;41.09
15694;BME280;7947;48.834;9.132;2024-02-21T14:02:31;98162.19;;;14.10;41.32
15694;BME280;7947;48.834;9.132;2024-02-21T14:05:34;98164.25;;;14.00;42.43
15694;BME280;7947;48.834;9.132;2024-02-21T14:08:41;98155.09;;;14.01;41.86
15694;BME280;7947;48.834;9.132;2024-02-21T14:11:44;98149.66;;;13.87;42.17
15694;BME280;7947;48.834;9.132;2024-02-21T14:14:48;98144.97;;;13.93;42.40
15694;BME280;7947;48.834;9.132;2024-02-21T14:17:51;98151.25;;;13.88;42.86
15694;BME280;7947;48.834;9.132;2024-02-21T14:20:54;98147.97;;;13.91;42.61
15694;BME280;7947;48.834;9.132;2024-02-21T14:23:58;98143.59;;;13.95;40.73
15694;BME280;7947;48.834;9.132;2024-02-21T14:27:04;98130.91;;;13.96;41.29
15694;BME280;7947;48.834;9.132;2024-02-21T14:30:08;98130.63;;;13.97;40.09
15694;BME280;7947;48.834;9.132;2024-02-21T14:33:13;98125.44;;;14.01;40.40
15694;BME280;7947;48.834;9.132;2024-02-21T14:36:15;98124.63;;;14.00;41.03
15694;BME280;7947;48.834;9.132;2024-02-21T14:39:20;98124.81;;;14.04;40.51
15694;BME280;7947;48.834;9.132;2024-02-21T14:42:22;98110.84;;;14.02;40.08
15694;BME280;7947;48.834;9.132;2024-02-21T14:45:27;98110.34;;;14.13;38.35
15694;BME280;7947;48.834;9.132;2024-02-21T14:48:30;98100.34;;;14.00;39.68
15694;BME280;7947;48.834;9.132;2024-02-21T14:51:33;98090.84;;;13.89;41.26
15694;BME280;7947;48.834;9.132;2024-02-21T14:54:38;98090.34;;;13.87;41.41
15694;BME280;7947;48.834;9.132;2024-02-21T14:57:44;98077.97;;;14.00;40.11
15694;BME280;7947;48.834;9.132;2024-02-21T15:00:48;98084.25;;;13.82;40.75
15694;BME280;7947;48.834;9.132;2024-02-21T15:03:51;98086.56;;;13.88;38.74
15694;BME280;7947;48.834;9.132;2024-02-21T15:06:54;98085.16;;;13.91;38.15
15694;BME280;7947;48.834;9.132;2024-02-21T15:09:58;98078.78;;;14.00;36.79
15694;BME280;7947;48.834;9.132;2024-02-21T15:13:01;98077.88;;;13.91;37.66
15694;BME280;7947;48.834;9.132;2024-02-21T15:16:04;98059.50;;;13.80;37.45
15694;BME280;7947;48.834;9.132;2024-02-21T15:19:08;98060.75;;;13.69;37.64
15694;BME280;7947;48.834;9.132;2024-02-21T15:22:11;98038.91;;;13.70;37.15
15694;BME280;7947;48.834;9.132;2024-02-21T15:25:15;98037.00;;;13.71;36.67
15694;BME280;7947;48.834;9.132;2024-02-21T15:28:19;98031.91;;;13.69;36.46
15694;BME280;7947;48.834;9.132;2024-02-21T15:31:23;98021.94;;;13.70;37.11
15694;BME280;7947;48.834;9.132;2024-02-21T15:34:26;98009.53;;;13.69;36.99
15694;BME280;7947;48.834;9.132;2024-02-21T15:37:29;97992.00;;;13.71;36.19
15694;BME280;7947;48.834;9.132;2024-02-21T15:40:33;98002.34;;;13.50;37.06
15694;BME280;7947;48.834;9.132;2024-02-21T15:43:37;97993.66;;;13.53;36.91
15694;BME280;7947;48.834;9.132;2024-02-21T15:46:40;97988.28;;;13.67;36.50
15694;BME280;7947;48.834;9.132;2024-02-21T15:49:44;97982.56;;;13.55;36.79
15694;BME280;7947;48.834;9.132;2024-02-21T15:52:47;97981.06;;;13.35;37.42
15694;BME280;7947;48.834;9.132;2024-02-21T15:55:51;97983.94;;;13.25;38.56
15694;BME280;7947;48.834;9.132;2024-02-21T15:58:55;97990.59;;;13.28;38.51
15694;BME280;7947;48.834;9.132;2024-02-21T16:01:58;97987.03;;;13.32;37.94
15694;BME280;7947;48.834;9.132;2024-02-21T16:05:02;97970.91;;;13.59;37.08
15694;BME280;7947;48.834;9.132;2024-02-21T16:08:10;97972.59;;;13.42;38.12
15694;BME280;7947;48.834;9.132;2024-02-21T16:11:15;97971.38;;;13.34;39.74
15694;BME280;7947;48.834;9.132;2024-02-21T16:14:19;97958.00;;;13.29;39.65
15694;BME280;7947;48.834;9.132;2024-02-21T16:17:22;97962.28;;;13.30;38.85
15694;BME280;7947;48.834;9.132;2024-02-21T16:20:25;97957.59;;;13.36;39.50
15694;BME280;7947;48.834;9.132;2024-02-21T16:23:28;97948.31;;;13.28;39.83
15694;BME280;7947;48.834;9.132;2024-02-21T16:26:35;97936.16;;;13.31;40.63
15694;BME280;7947;48.834;9.132;2024-02-21T16:29:38;97933.63;;;13.21;41.65
15694;BME280;7947;48.834;9.132;2024-02-21T16:32:42;97930.84;;;13.12;41.75